Time;durP1;ratioP1;P1;durP2;ratioP2;P2;SDS_P1;SDS_P2;PMS_P1;PMS_P2;Temp;Humidity;BMP_temperature;BMP_pressure;BME280_temperature;BME280_humidity;BME280_pressure;Samples;Min_cycle;Max_cycle;Signal;HPM_P1;HPM_P2
2023/04/09 00:00:19;;;;;;;12.80;6.32;;;;;;;3.08;100.00;99309.19;4469887;32;20088;-66
2023/04/09 00:02:47;;;;;;;10.52;6.37;;;;;;;3.05;100.00;99304.16;4469922;32;20147;-67
2023/04/09 00:05:14;;;;;;;12.13;6.10;;;;;;;3.07;100.00;99308.34;4469712;32;20085;-66
2023/04/09 00:07:41;;;;;;;9.80;6.10;;;;;;;3.01;100.00;99308.66;4469618;32;20108;-66
2023/04/09 00:10:10;;;;;;;13.57;6.62;;;;;;;3.02;100.00;99305.97;4469538;32;20130;-66
2023/04/09 00:12:38;;;;;;;10.80;5.80;;;;;;;3.08;100.00;99316.97;4469572;32;20088;-66
2023/04/09 00:15:05;;;;;;;13.35;7.22;;;;;;;3.04;100.00;99307.66;4469448;32;20146;-66
2023/04/09 00:17:37;;;;;;;13.50;6.78;;;;;;;3.15;100.00;99306.22;4469752;32;20477;-66
2023/04/09 00:20:05;;;;;;;10.85;6.65;;;;;;;3.29;100.00;99313.28;4469807;32;20101;-66
2023/04/09 00:22:32;;;;;;;13.20;6.70;;;;;;;3.19;100.00;99306.87;4469639;32;20548;-66
2023/04/09 00:25:00;;;;;;;14.60;7.00;;;;;;;3.12;100.00;99305.50;4469409;32;20160;-66
2023/04/09 00:27:27;;;;;;;13.32;7.15;;;;;;;3.19;100.00;99306.87;4469569;32;20085;-66
2023/04/09 00:29:55;;;;;;;14.02;6.95;;;;;;;3.25;100.00;99304.00;4469414;32;20452;-66
2023/04/09 00:32:22;;;;;;;11.93;6.93;;;;;;;3.17;100.00;99306.16;4469366;32;20100;-66
2023/04/09 00:34:50;;;;;;;15.00;8.10;;;;;;;3.11;100.00;99302.09;4469050;32;20168;-66
2023/04/09 00:37:17;;;;;;;13.07;7.32;;;;;;;3.06;100.00;99306.69;4469322;32;20424;-66
2023/04/09 00:39:45;;;;;;;11.88;7.05;;;;;;;3.15;100.00;99300.19;4469680;32;20104;-66
2023/04/09 00:42:15;;;;;;;13.50;6.93;;;;;;;3.26;100.00;99308.25;4469421;32;20378;-67
2023/04/09 00:44:42;;;;;;;11.25;6.78;;;;;;;3.21;100.00;99302.50;4469686;32;20262;-66
2023/04/09 00:47:09;;;;;;;12.70;7.00;;;;;;;3.12;100.00;99295.16;4469222;32;20099;-66
2023/04/09 00:49:37;;;;;;;9.60;6.43;;;;;;;3.13;100.00;99292.50;4469382;32;20184;-67
2023/04/09 00:52:04;;;;;;;9.38;5.82;;;;;;;3.14;100.00;99298.53;4469349;32;20092;-66
2023/04/09 00:54:31;;;;;;;10.68;6.30;;;;;;;3.07;100.00;99292.81;4468130;32;20133;-66
2023/04/09 00:56:58;;;;;;;15.73;6.87;;;;;;;3.21;100.00;99294.72;4469232;32;20474;-66
2023/04/09 00:59:25;;;;;;;12.20;6.60;;;;;;;3.12;100.00;99289.97;4469496;32;20100;-66
2023/04/09 01:01:53;;;;;;;10.13;5.62;;;;;;;3.22;100.00;99290.38;4467800;32;20096;-67
2023/04/09 01:04:21;;;;;;;9.95;5.35;;;;;;;3.16;100.00;99297.53;4469260;32;20093;-67
2023/04/09 01:06:52;;;;;;;10.25;5.90;;;;;;;3.19;100.00;99296.53;4469058;32;20599;-66
2023/04/09 01:09:47;;;;;;;9.48;6.05;;;;;;;3.19;100.00;99297.41;4467987;32;20595;-66
2023/04/09 01:12:28;;;;;;;11.75;7.05;;;;;;;3.20;100.00;99298.22;4467855;32;20155;-66
2023/04/09 01:15:09;;;;;;;9.70;5.60;;;;;;;3.21;100.00;99299.91;4467771;32;20378;-66
2023/04/09 01:17:36;;;;;;;9.95;6.25;;;;;;;3.12;100.00;99296.03;4469265;32;20085;-66
2023/04/09 01:20:10;;;;;;;9.73;5.82;;;;;;;3.10;100.00;99294.41;4469221;32;20108;-67
2023/04/09 01:22:59;;;;;;;9.38;5.60;;;;;;;2.99;100.00;99294.94;4469123;32;20148;-66
2023/04/09 01:25:41;;;;;;;11.12;6.32;;;;;;;2.98;100.00;99296.72;4467816;32;20085;-66
2023/04/09 01:28:18;;;;;;;12.40;7.03;;;;;;;2.99;100.00;99298.38;4467775;32;20097;-66
2023/04/09 01:30:48;;;;;;;11.25;6.00;;;;;;;2.92;100.00;99293.56;4467694;32;20119;-66
2023/04/09 01:33:18;;;;;;;11.98;6.53;;;;;;;3.02;100.00;99292.22;4467716;32;20088;-66
2023/04/09 01:35:46;;;;;;;12.13;6.87;;;;;;;3.04;100.00;99297.31;4467646;32;20519;-66
2023/04/09 01:38:15;;;;;;;12.35;6.50;;;;;;;3.13;100.00;99294.25;4467646;32;20439;-66
2023/04/09 01:40:43;;;;;;;15.05;6.57;;;;;;;3.07;100.00;99292.81;4467730;32;20101;-66
2023/04/09 01:43:11;;;;;;;10.52;5.97;;;;;;;3.00;100.00;99302.63;4468993;32;20161;-66
2023/04/09 01:45:39;;;;;;;11.12;6.60;;;;;;;3.06;100.00;99295.47;4467652;32;20473;-66
2023/04/09 01:48:06;;;;;;;10.45;5.93;;;;;;;3.10;100.00;99299.59;4469237;32;20116;-66
2023/04/09 01:50:34;;;;;;;11.55;6.60;;;;;;;2.93;100.00;99301.25;4470720;32;20157;-67
2023/04/09 01:53:02;;;;;;;11.38;5.90;;;;;;;2.81;100.00;99299.28;4470718;32;20172;-67
2023/04/09 01:55:29;;;;;;;12.15;6.50;;;;;;;2.86;100.00;99297.28;4469205;32;20089;-67
2023/04/09 01:57:57;;;;;;;12.37;6.28;;;;;;;2.72;100.00;99300.56;4470618;32;20154;-67
2023/04/09 02:00:26;;;;;;;10.68;6.25;;;;;;;2.75;100.00;99295.22;4470719;32;20121;-66
2023/04/09 02:03:17;;;;;;;13.90;6.62;;;;;;;2.69;100.00;99297.28;4469311;32;20100;-67
2023/04/09 02:05:51;;;;;;;14.48;6.72;;;;;;;2.63;100.00;99299.28;4406191;32;20403;-66
2023/04/09 02:08:20;;;;;;;10.02;6.07;;;;;;;2.69;100.00;99297.28;4393718;32;20464;-67
2023/04/09 02:10:54;;;;;;;13.07;6.93;;;;;;;2.64;100.00;99298.34;4406258;32;20757;-67
2023/04/09 02:13:21;;;;;;;;;;;;;;;2.66;100.00;99295.69;4406720;32;20102;-66
2023/04/09 02:15:49;;;;;;;13.32;6.50;;;;;;;2.74;100.00;99290.13;4394041;32;19999;-66
2023/04/09 02:18:30;;;;;;;12.07;6.95;;;;;;;2.74;100.00;99292.72;4406272;32;20161;-66
2023/04/09 02:20:58;;;;;;;10.93;6.00;;;;;;;2.76;100.00;99294.34;4406471;32;20156;-66
2023/04/09 02:23:26;;;;;;;15.18;6.95;;;;;;;2.86;100.00;99288.69;4406356;32;20462;-67
2023/04/09 02:25:53;;;;;;;12.43;6.40;;;;;;;2.77;100.00;99289.97;4406105;32;20128;-67
2023/04/09 02:28:20;;;;;;;14.05;7.30;;;;;;;2.74;100.00;99284.97;4393928;32;20261;-66
2023/04/09 02:30:50;;;;;;;14.60;7.62;;;;;;;2.74;100.00;99290.13;4406358;32;20110;-66
2023/04/09 02:33:17;;;;;;;17.35;8.63;;;;;;;2.66;100.00;99290.50;4406121;32;20094;-66
2023/04/09 02:35:44;;;;;;;14.90;8.00;;;;;;;2.60;100.00;99289.03;4406143;32;20567;-66
2023/04/09 02:38:13;;;;;;;12.85;7.25;;;;;;;2.58;100.00;99290.06;4406008;32;20111;-66
2023/04/09 02:40:40;;;;;;;14.02;7.03;;;;;;;2.58;100.00;99295.22;4406533;32;20122;-66
2023/04/09 02:43:08;;;;;;;13.57;7.18;;;;;;;2.52;100.00;99291.19;4443074;32;20171;-66
2023/04/09 02:45:36;;;;;;;15.40;7.75;;;;;;;2.43;100.00;99282.09;4470280;32;20101;-66
2023/04/09 02:48:03;;;;;;;16.67;7.32;;;;;;;2.43;100.00;99284.69;4470166;32;20089;-66
2023/04/09 02:50:31;;;;;;;11.80;6.72;;;;;;;2.40;100.00;99278.84;4470617;32;20127;-66
2023/04/09 02:52:58;;;;;;;13.60;7.55;;;;;;;2.40;100.00;99282.25;4469928;32;20132;-66
2023/04/09 02:55:26;;;;;;;13.13;6.68;;;;;;;2.41;100.00;99283.94;4470311;32;20103;-66
2023/04/09 02:57:53;;;;;;;14.25;7.18;;;;;;;2.39;100.00;99278.00;4470285;32;20506;-66
2023/04/09 03:00:20;;;;;;;16.75;8.10;;;;;;;2.38;100.00;99283.25;4470157;32;20128;-66
2023/04/09 03:02:47;;;;;;;12.10;6.18;;;;;;;2.34;100.00;99281.72;4470400;32;20164;-66
2023/04/09 03:05:14;;;;;;;12.18;6.85;;;;;;;2.42;100.00;99284.75;4470215;32;20096;-66
2023/04/09 03:07:42;;;;;;;14.77;6.93;;;;;;;2.36;100.00;99285.06;4469706;32;20089;-66
2023/04/09 03:10:09;;;;;;;17.60;7.97;;;;;;;2.38;100.00;99281.50;4470127;32;20097;-67
2023/04/09 03:12:36;;;;;;;11.75;7.03;;;;;;;2.42;100.00;99285.63;4470052;32;20115;-66
2023/04/09 03:15:04;;;;;;;13.48;7.22;;;;;;;2.42;100.00;99279.59;4470345;32;20088;-66
2023/04/09 03:17:31;;;;;;;14.77;7.30;;;;;;;2.38;100.00;99275.50;4469861;32;20486;-66
2023/04/09 03:19:58;;;;;;;15.05;7.10;;;;;;;2.23;100.00;99279.63;4470154;32;20166;-66
2023/04/09 03:22:36;;;;;;;13.73;7.50;;;;;;;2.12;100.00;99282.72;4470207;32;20110;-66
2023/04/09 03:25:04;;;;;;;11.40;6.70;;;;;;;2.01;100.00;99279.78;4470425;32;20498;-66
2023/04/09 03:27:32;;;;;;;12.07;6.90;;;;;;;2.04;100.00;99279.63;4469891;32;20157;-66
2023/04/09 03:29:59;;;;;;;14.95;7.68;;;;;;;2.00;100.00;99275.50;4470193;32;20188;-66
2023/04/09 03:32:27;;;;;;;13.60;7.82;;;;;;;1.98;100.00;99273.00;4470001;32;20092;-66
2023/04/09 03:34:55;;;;;;;13.93;7.00;;;;;;;1.93;100.00;99283.53;4470138;32;20429;-66
2023/04/09 03:37:22;;;;;;;20.67;9.68;;;;;;;1.80;100.00;99277.25;4470166;32;20177;-66
2023/04/09 03:39:50;;;;;;;55.38;24.25;;;;;;;1.81;100.00;99278.94;4469816;32;20166;-66
2023/04/09 03:42:18;;;;;;;45.38;22.48;;;;;;;1.65;100.00;99280.53;4470075;32;20149;-66
2023/04/09 03:44:46;;;;;;;22.23;11.30;;;;;;;1.63;100.00;99287.50;4469821;32;20118;-66
2023/04/09 03:47:13;;;;;;;12.88;7.80;;;;;;;1.58;100.00;99283.38;4468394;32;20113;-66
2023/04/09 03:49:41;;;;;;;14.75;7.25;;;;;;;1.64;100.00;99281.44;4470054;32;20088;-66
2023/04/09 03:52:09;;;;;;;17.25;9.00;;;;;;;1.70;100.00;99276.00;4470178;32;20390;-66
2023/04/09 03:54:36;;;;;;;22.67;10.27;;;;;;;1.62;100.00;99283.25;4470004;32;20225;-66
2023/04/09 03:57:05;;;;;;;50.92;21.05;;;;;;;1.55;100.00;99288.69;4469907;32;20114;-66
2023/04/09 03:59:36;;;;;;;295.52;89.13;;;;;;;1.46;100.00;99290.84;4469934;32;20461;-66
2023/04/09 04:02:03;;;;;;;119.85;47.15;;;;;;;1.49;100.00;99290.72;4469922;32;20096;-66
2023/04/09 04:04:31;;;;;;;29.30;13.40;;;;;;;1.51;100.00;99289.72;4469895;32;20152;-66
2023/04/09 04:06:58;;;;;;;20.42;9.75;;;;;;;1.55;100.00;99296.44;4469617;32;20131;-66
2023/04/09 04:09:26;;;;;;;18.02;8.57;;;;;;;1.66;100.00;99289.97;4469272;32;20466;-66
2023/04/09 04:11:55;;;;;;;17.55;8.20;;;;;;;1.69;100.00;99295.81;4469902;32;20126;-66
2023/04/09 04:14:23;;;;;;;15.00;8.57;;;;;;;1.64;100.00;99294.38;4469925;32;20103;-66
2023/04/09 04:16:51;;;;;;;16.77;9.05;;;;;;;1.66;100.00;99297.72;4470043;32;20105;-66
2023/04/09 04:19:18;;;;;;;17.52;8.82;;;;;;;1.80;100.00;99295.34;4469533;32;20122;-66
2023/04/09 04:21:46;;;;;;;16.83;8.27;;;;;;;1.82;100.00;99295.25;4469968;32;20104;-66
2023/04/09 04:24:13;;;;;;;16.08;8.10;;;;;;;1.86;100.00;99301.97;4469836;32;20157;-66
2023/04/09 04:26:40;;;;;;;14.73;8.23;;;;;;;1.88;100.00;99298.44;4469539;32;20210;-66
2023/04/09 04:29:07;;;;;;;14.65;7.60;;;;;;;1.99;100.00;99300.53;4469682;32;20096;-66
2023/04/09 04:31:35;;;;;;;16.70;8.52;;;;;;;2.06;100.00;99308.81;4469542;32;20096;-66
2023/04/09 04:34:02;;;;;;;19.37;8.75;;;;;;;2.12;100.00;99305.97;4469427;32;20084;-66
2023/04/09 04:36:29;;;;;;;19.52;8.90;;;;;;;2.15;100.00;99305.84;4470014;32;20119;-66
2023/04/09 04:38:57;;;;;;;19.87;8.38;;;;;;;2.28;100.00;99312.09;4469532;32;20100;-66
2023/04/09 04:41:24;;;;;;;17.77;8.65;;;;;;;2.51;100.00;99315.34;4469600;32;20101;-67
2023/04/09 04:43:52;;;;;;;14.63;7.68;;;;;;;2.49;100.00;99312.00;4469604;32;20093;-66
2023/04/09 04:46:20;;;;;;;19.12;9.50;;;;;;;2.50;100.00;99313.69;4469293;32;20085;-66
2023/04/09 04:48:48;;;;;;;18.40;9.05;;;;;;;2.60;100.00;99314.91;4469384;32;20382;-66
2023/04/09 04:51:15;;;;;;;18.02;8.65;;;;;;;2.72;100.00;99317.84;4469542;32;20105;-66
2023/04/09 04:53:43;;;;;;;18.42;8.88;;;;;;;2.67;100.00;99320.66;4469275;32;20126;-67
2023/04/09 04:56:14;;;;;;;19.27;9.75;;;;;;;2.73;100.00;99317.75;4469457;32;20124;-66
2023/04/09 04:58:43;;;;;;;15.10;8.88;;;;;;;2.79;100.00;99319.22;4469718;32;20088;-66
2023/04/09 05:01:11;;;;;;;17.75;8.50;;;;;;;2.81;100.00;99317.38;4469460;32;20176;-66
2023/04/09 05:03:38;;;;;;;19.30;9.32;;;;;;;2.93;100.00;99321.97;4469638;32;20076;-66
2023/04/09 05:06:06;;;;;;;19.08;9.23;;;;;;;2.98;100.00;99335.53;4469427;32;20170;-66
2023/04/09 05:08:35;;;;;;;20.52;10.02;;;;;;;3.02;100.00;99328.44;4469470;32;20399;-66
2023/04/09 05:11:02;;;;;;;21.05;10.23;;;;;;;3.00;100.00;99328.53;4469239;32;20126;-66
2023/04/09 05:13:30;;;;;;;21.15;10.63;;;;;;;3.09;100.00;99326.38;4469467;32;20525;-66
2023/04/09 05:15:57;;;;;;;22.83;10.73;;;;;;;3.13;100.00;99333.09;4453663;32;20131;-66
2023/04/09 05:18:25;;;;;;;17.70;9.90;;;;;;;3.26;100.00;99334.16;4453872;32;20177;-66
2023/04/09 05:20:52;;;;;;;18.67;9.88;;;;;;;3.19;100.00;99332.78;4452916;32;20093;-66
2023/04/09 05:23:20;;;;;;;19.52;9.85;;;;;;;3.24;100.00;99332.56;4453153;32;20127;-66
2023/04/09 05:25:49;;;;;;;20.25;9.63;;;;;;;3.23;100.00;99329.13;4453689;32;20149;-66
2023/04/09 05:28:16;;;;;;;21.60;10.98;;;;;;;3.29;100.00;99334.00;4453672;32;20161;-66
2023/04/09 05:30:46;;;;;;;23.17;11.35;;;;;;;3.42;100.00;99338.56;4453537;32;20142;-66
2023/04/09 05:33:13;;;;;;;17.83;9.02;;;;;;;3.49;100.00;99343.34;4453339;32;20409;-66
2023/04/09 05:35:40;;;;;;;21.73;10.60;;;;;;;3.44;100.00;99345.34;4453564;32;20124;-66
2023/04/09 05:38:08;;;;;;;20.70;10.50;;;;;;;3.53;100.00;99341.47;4453269;32;20085;-66
2023/04/09 05:40:37;;;;;;;28.70;14.23;;;;;;;3.62;100.00;99350.50;4453508;32;20122;-66
2023/04/09 05:43:08;;;;;;;29.63;14.35;;;;;;;3.66;100.00;99346.84;4453691;32;20084;-66
2023/04/09 05:45:36;;;;;;;27.73;14.05;;;;;;;3.85;100.00;99354.50;4453219;32;20128;-66
2023/04/09 05:48:05;;;;;;;29.20;13.32;;;;;;;3.95;100.00;99352.25;4453257;32;20105;-66
2023/04/09 05:50:32;;;;;;;19.40;10.45;;;;;;;3.99;100.00;99344.22;4453197;32;20164;-66
2023/04/09 05:53:13;;;;;;;19.40;9.77;;;;;;;4.08;100.00;99354.09;4453254;32;20572;-67
2023/04/09 05:55:40;;;;;;;17.05;9.02;;;;;;;4.28;100.00;99351.38;4453117;32;20097;-66
2023/04/09 05:58:08;;;;;;;17.27;8.88;;;;;;;4.37;100.00;99349.12;4453359;32;20391;-67
2023/04/09 06:00:36;;;;;;;17.30;8.82;;;;;;;4.51;100.00;99350.12;4452940;32;20115;-67
2023/04/09 06:03:03;;;;;;;18.27;9.20;;;;;;;4.61;100.00;99352.13;4453055;32;20093;-67
2023/04/09 06:05:31;;;;;;;13.45;8.05;;;;;;;4.74;100.00;99352.28;4452873;32;20157;-67
2023/04/09 06:07:57;;;;;;;16.10;8.32;;;;;;;4.85;100.00;99358.66;4452805;32;20101;-66
2023/04/09 06:10:25;;;;;;;16.50;8.93;;;;;;;4.99;100.00;99358.69;4452705;32;20096;-67
2023/04/09 06:12:52;;;;;;;14.73;8.77;;;;;;;5.00;100.00;99356.91;4466866;32;20109;-67
2023/04/09 06:15:19;;;;;;;16.02;9.20;;;;;;;5.20;100.00;99361.81;4468237;32;20097;-67
2023/04/09 06:17:46;;;;;;;14.95;8.85;;;;;;;5.43;100.00;99365.69;4468410;32;20109;-67
2023/04/09 06:20:14;;;;;;;16.33;8.80;;;;;;;5.28;100.00;99370.03;4468275;32;20540;-67
2023/04/09 06:22:41;;;;;;;13.90;7.05;;;;;;;5.31;100.00;99367.25;4468329;32;20141;-67
2023/04/09 06:25:08;;;;;;;13.52;7.55;;;;;;;5.39;100.00;99374.59;4468000;32;20131;-67
2023/04/09 06:27:35;;;;;;;14.77;7.70;;;;;;;5.45;100.00;99369.03;4468357;32;20169;-67
2023/04/09 06:30:03;;;;;;;15.02;6.75;;;;;;;5.51;100.00;99367.81;4468000;32;20089;-67
2023/04/09 06:32:30;;;;;;;11.55;6.78;;;;;;;5.63;100.00;99358.47;4468260;32;20105;-67
2023/04/09 06:35:04;;;;;;;13.20;7.00;;;;;;;5.72;100.00;99362.28;4470394;32;20112;-67
2023/04/09 06:37:31;;;;;;;13.55;6.75;;;;;;;5.93;100.00;99370.56;4470475;32;20215;-67
2023/04/09 06:39:58;;;;;;;11.85;7.10;;;;;;;5.98;100.00;99371.16;4470228;32;20084;-67
2023/04/09 06:42:27;;;;;;;11.73;7.32;;;;;;;6.06;100.00;99363.72;4470235;32;20097;-67
2023/04/09 06:44:55;;;;;;;12.23;7.20;;;;;;;6.14;100.00;99371.88;4470475;32;20092;-67
2023/04/09 06:47:22;;;;;;;12.07;7.40;;;;;;;6.21;100.00;99365.38;4470184;32;20108;-67
2023/04/09 06:49:49;;;;;;;11.73;6.70;;;;;;;6.42;100.00;99365.00;4470204;32;20180;-67
2023/04/09 06:52:16;;;;;;;17.08;8.32;;;;;;;6.31;100.00;99368.25;4470191;32;20105;-67
2023/04/09 06:54:44;;;;;;;15.07;7.68;;;;;;;6.17;100.00;99374.31;4470241;32;20077;-67
2023/04/09 06:57:11;;;;;;;14.27;8.20;;;;;;;6.22;100.00;99374.88;4470328;32;20514;-67
2023/04/09 06:59:39;;;;;;;13.32;7.22;;;;;;;6.36;100.00;99376.63;4470281;32;20477;-67
2023/04/09 07:02:06;;;;;;;13.27;7.10;;;;;;;6.38;100.00;99379.12;4469992;32;20114;-67
2023/04/09 07:04:34;;;;;;;13.23;7.37;;;;;;;6.15;100.00;99386.56;4470240;32;20089;-67
2023/04/09 07:07:02;;;;;;;10.85;7.18;;;;;;;6.35;100.00;99384.53;4469807;32;20144;-67
2023/04/09 07:09:30;;;;;;;13.75;7.43;;;;;;;5.80;100.00;99384.31;4470005;32;20490;-66
2023/04/09 07:11:57;;;;;;;15.48;7.65;;;;;;;6.02;100.00;99396.06;4470288;32;20100;-67
2023/04/09 07:14:24;;;;;;;12.15;6.93;;;;;;;6.32;100.00;99395.94;4469966;32;20104;-67
2023/04/09 07:16:51;;;;;;;12.48;6.93;;;;;;;6.41;100.00;99397.16;4469973;32;20628;-67
2023/04/09 07:19:18;;;;;;;14.82;7.22;;;;;;;6.45;100.00;99401.25;4470266;32;20383;-67
2023/04/09 07:21:46;;;;;;;11.93;6.55;;;;;;;6.27;100.00;99398.00;4469862;32;20093;-67
2023/04/09 07:24:13;;;;;;;11.80;6.80;;;;;;;6.55;100.00;99399.72;4470087;32;20096;-67
2023/04/09 07:26:40;;;;;;;10.57;6.32;;;;;;;6.32;100.00;99398.53;4469879;32;20153;-67
2023/04/09 07:29:07;;;;;;;10.90;6.18;;;;;;;6.66;100.00;99404.28;4470065;32;20105;-67
2023/04/09 07:31:34;;;;;;;8.70;5.12;;;;;;;6.33;100.00;99408.03;4469628;32;20101;-67
2023/04/09 07:34:02;;;;;;;8.05;5.25;;;;;;;6.49;100.00;99410.50;4470065;32;20452;-67
2023/04/09 07:36:30;;;;;;;11.52;6.45;;;;;;;6.66;100.00;99408.63;4469962;32;20175;-67
2023/04/09 07:38:57;;;;;;;9.38;5.43;;;;;;;6.75;100.00;99408.91;4469686;32;20081;-67
2023/04/09 07:41:25;;;;;;;11.77;6.65;;;;;;;6.79;100.00;99409.53;4469694;32;20400;-67
2023/04/09 07:43:52;;;;;;;11.82;6.22;;;;;;;7.02;100.00;99412.44;4469764;32;20100;-67
2023/04/09 07:46:20;;;;;;;8.85;5.60;;;;;;;7.29;100.00;99405.44;4469402;32;20084;-67
2023/04/09 07:48:48;;;;;;;9.63;6.30;;;;;;;7.44;100.00;99421.00;4469856;32;20089;-67
2023/04/09 07:51:16;;;;;;;9.68;5.68;;;;;;;7.46;100.00;99419.13;4469755;32;20089;-67
2023/04/09 07:53:44;;;;;;;9.73;5.32;;;;;;;7.79;100.00;99420.44;4469929;32;20100;-67
2023/04/09 07:56:11;;;;;;;8.63;5.53;;;;;;;7.95;100.00;99415.03;4470112;32;20131;-67
2023/04/09 07:58:38;;;;;;;8.32;4.70;;;;;;;8.25;100.00;99419.91;4469868;32;20508;-67
2023/04/09 08:01:05;;;;;;;9.20;4.97;;;;;;;8.59;100.00;99412.34;4469750;32;20375;-67
2023/04/09 08:03:34;;;;;;;9.73;6.28;;;;;;;8.14;100.00;99414.59;4469587;32;20150;-67
2023/04/09 08:06:02;;;;;;;9.75;5.50;;;;;;;8.21;100.00;99421.06;4469688;32;20093;-67
2023/04/09 08:08:29;;;;;;;10.15;5.47;;;;;;;8.64;100.00;99412.03;4469421;32;20085;-67
2023/04/09 08:10:57;;;;;;;9.13;5.55;;;;;;;8.62;100.00;99403.47;4469597;32;20545;-67
2023/04/09 08:13:24;;;;;;;8.60;4.82;;;;;;;8.71;100.00;99410.66;4470034;32;20118;-67
2023/04/09 08:15:52;;;;;;;9.73;5.50;;;;;;;8.68;100.00;99405.66;4470021;32;20172;-67
2023/04/09 08:18:19;;;;;;;9.15;5.12;;;;;;;9.09;100.00;99411.44;4469652;32;20103;-67
2023/04/09 08:20:46;;;;;;;10.77;6.55;;;;;;;9.34;100.00;99406.09;4469756;32;20534;-67
2023/04/09 08:23:13;;;;;;;8.30;5.10;;;;;;;9.54;98.09;99409.00;4469391;32;20088;-67
2023/04/09 08:25:41;;;;;;;8.18;5.25;;;;;;;9.72;95.01;99412.84;4469722;32;20088;-67
2023/04/09 08:28:08;;;;;;;10.90;6.30;;;;;;;9.65;91.85;99423.91;4469218;32;20152;-67
2023/04/09 08:30:35;;;;;;;9.88;5.90;;;;;;;9.82;92.76;99409.53;4469451;32;20111;-67
2023/04/09 08:33:02;;;;;;;8.93;5.65;;;;;;;10.08;93.97;99421.47;4469446;32;20097;-67
2023/04/09 08:35:30;;;;;;;6.95;4.53;;;;;;;10.09;89.48;99422.31;4469594;32;20092;-67
2023/04/09 08:37:58;;;;;;;8.60;5.03;;;;;;;10.26;91.30;99426.22;4469338;32;20154;-67
2023/04/09 08:40:25;;;;;;;9.63;6.62;;;;;;;10.09;90.21;99427.53;4469570;32;20440;-67
2023/04/09 08:42:55;;;;;;;10.73;6.00;;;;;;;9.72;92.00;99431.16;4469282;32;20097;-67
2023/04/09 08:45:23;;;;;;;8.82;5.35;;;;;;;9.91;93.29;99435.00;4469650;32;20113;-67
2023/04/09 08:47:50;;;;;;;9.05;6.40;;;;;;;10.07;90.93;99430.28;4469256;32;20085;-67
2023/04/09 08:50:18;;;;;;;11.68;6.82;;;;;;;10.25;95.53;99437.66;4469634;32;20093;-67
2023/04/09 08:52:47;;;;;;;10.98;6.18;;;;;;;9.81;90.82;99444.50;4469352;32;20156;-67
2023/04/09 08:55:15;;;;;;;10.75;6.45;;;;;;;9.62;91.98;99439.81;4468277;32;20221;-67
2023/04/09 08:57:42;;;;;;;12.50;7.00;;;;;;;9.77;92.74;99443.91;4469065;32;20088;-67
2023/04/09 09:00:10;;;;;;;11.07;6.80;;;;;;;10.02;95.05;99447.28;4469533;32;20088;-67
2023/04/09 09:02:38;;;;;;;7.87;5.53;;;;;;;10.25;95.44;99458.59;4469225;32;20127;-67
2023/04/09 09:05:06;;;;;;;10.93;6.18;;;;;;;10.29;92.42;99460.03;4469394;32;20450;-67
2023/04/09 09:07:33;;;;;;;10.45;6.20;;;;;;;10.27;90.33;99454.09;4468691;32;20140;-67
2023/04/09 09:10:04;;;;;;;9.40;6.00;;;;;;;10.18;89.55;99465.28;4469472;32;20145;-67
2023/04/09 09:12:33;;;;;;;8.75;5.57;;;;;;;10.52;89.77;99460.06;4469169;32;20148;-67
2023/04/09 09:15:00;;;;;;;6.95;4.97;;;;;;;10.40;87.81;99457.47;4469285;32;20154;-67
2023/04/09 09:17:28;;;;;;;7.82;4.85;;;;;;;10.52;89.35;99455.66;4469200;32;20540;-67
2023/04/09 09:19:55;;;;;;;9.98;5.40;;;;;;;10.46;86.65;99459.59;4469240;32;20092;-67
2023/04/09 09:22:23;;;;;;;8.63;5.40;;;;;;;10.75;81.37;99453.88;4469128;32;20114;-67
2023/04/09 09:24:52;;;;;;;9.57;5.75;;;;;;;11.20;88.45;99452.91;4469253;32;20161;-67
2023/04/09 09:27:35;;;;;;;9.98;5.87;;;;;;;11.29;85.16;99457.41;4469011;32;20122;-67
2023/04/09 09:30:04;;;;;;;9.50;5.62;;;;;;;11.50;85.19;99454.81;4469120;32;20494;-67
2023/04/09 09:32:32;;;;;;;9.30;5.87;;;;;;;11.75;92.35;99458.06;4468991;32;20104;-67
2023/04/09 09:35:04;;;;;;;9.45;6.05;;;;;;;11.79;80.27;99451.59;4469349;32;20112;-67
2023/04/09 09:37:32;;;;;;;9.50;5.97;;;;;;;12.20;81.83;99449.09;4469040;32;20463;-67
2023/04/09 09:40:00;;;;;;;10.10;5.85;;;;;;;11.99;80.95;99449.97;4468933;32;20093;-67
2023/04/09 09:42:27;;;;;;;10.20;5.93;;;;;;;10.93;79.34;99455.97;4467619;32;20109;-67
2023/04/09 09:44:55;;;;;;;10.55;6.07;;;;;;;11.26;78.38;99444.56;4468885;32;20155;-67
2023/04/09 09:47:24;;;;;;;9.32;5.80;;;;;;;11.30;77.40;99440.72;4468811;32;20109;-67
2023/04/09 09:49:51;;;;;;;8.80;5.40;;;;;;;11.27;77.50;99437.53;4468998;32;20104;-67
2023/04/09 09:52:25;;;;;;;11.27;6.32;;;;;;;11.57;80.60;99439.44;4469141;32;20093;-67
2023/04/09 09:54:54;;;;;;;9.70;6.03;;;;;;;11.39;82.38;99438.34;4468468;32;20111;-67
2023/04/09 09:57:24;;;;;;;9.48;6.28;;;;;;;11.61;82.96;99437.37;4467366;32;20151;-67
2023/04/09 10:00:00;;;;;;;10.25;5.85;;;;;;;11.72;80.35;99439.94;4468739;32;20072;-67
2023/04/09 10:02:31;;;;;;;11.32;6.60;;;;;;;11.47;78.54;99441.12;4468569;32;20482;-67
2023/04/09 10:05:00;;;;;;;11.77;6.50;;;;;;;11.26;80.87;99439.31;4467214;32;20262;-67
2023/04/09 10:07:27;;;;;;;8.57;5.65;;;;;;;11.46;81.15;99442.94;4468239;32;20589;-67
2023/04/09 10:09:55;;;;;;;8.70;5.80;;;;;;;11.03;79.70;99440.34;4469111;32;20081;-67
2023/04/09 10:12:24;;;;;;;9.25;5.75;;;;;;;10.86;81.09;99445.16;4470463;32;20552;-67
2023/04/09 10:14:52;;;;;;;10.63;6.55;;;;;;;10.48;82.38;99438.53;4469195;32;20100;-67
2023/04/09 10:17:20;;;;;;;12.65;6.40;;;;;;;10.35;81.84;99445.69;4469299;32;20136;-67
2023/04/09 10:20:00;;;;;;;11.00;6.55;;;;;;;10.36;82.56;99440.31;4470556;32;20162;-67
2023/04/09 10:22:28;;;;;;;10.38;6.45;;;;;;;10.56;83.99;99435.31;4469275;32;20187;-67
2023/04/09 10:24:56;;;;;;;9.43;6.32;;;;;;;10.39;80.66;99445.31;4470284;32;20480;-67
2023/04/09 10:27:25;;;;;;;10.98;6.32;;;;;;;10.63;82.38;99442.56;4469093;32;20092;-67
2023/04/09 10:29:52;;;;;;;9.23;6.50;;;;;;;11.08;82.96;99440.81;4470280;32;20124;-67
2023/04/09 10:32:25;;;;;;;10.10;6.57;;;;;;;11.02;78.42;99439.50;4470215;32;20139;-67
2023/04/09 10:34:57;;;;;;;12.13;7.40;;;;;;;11.06;79.24;99443.53;4470265;32;20455;-67
2023/04/09 10:37:26;;;;;;;10.63;6.32;;;;;;;10.95;79.16;99430.47;4470694;32;20093;-67
2023/04/09 10:39:53;;;;;;;10.30;6.30;;;;;;;10.79;78.55;99442.16;4470100;32;20118;-67
2023/04/09 10:42:26;;;;;;;11.95;7.10;;;;;;;10.59;78.26;99435.88;4470322;32;20092;-67
2023/04/09 10:45:13;;;;;;;12.55;7.37;;;;;;;10.51;81.14;99437.44;4470449;32;20155;-67
2023/04/09 10:47:42;;;;;;;10.27;5.90;;;;;;;10.87;85.11;99438.97;4470323;32;20095;-67
2023/04/09 10:50:19;;;;;;;11.75;7.00;;;;;;;11.05;82.13;99433.19;4470191;32;20116;-67
2023/04/09 10:52:51;;;;;;;11.57;6.87;;;;;;;10.89;81.80;99436.22;4470289;32;20097;-67
2023/04/09 10:55:43;;;;;;;12.05;7.07;;;;;;;10.66;83.18;99431.00;4470143;32;20505;-67
2023/04/09 10:58:11;;;;;;;12.82;7.22;;;;;;;10.52;88.07;99441.72;4468834;32;20152;-67
2023/04/09 11:00:44;;;;;;;10.38;6.82;;;;;;;10.32;85.00;99443.25;4470088;32;20092;-67
2023/04/09 11:03:29;;;;;;;11.00;6.70;;;;;;;9.87;85.54;99430.94;4470291;32;20101;-67
2023/04/09 11:06:04;;;;;;;11.25;6.40;;;;;;;9.96;82.94;99440.72;4470355;32;20132;-67
2023/04/09 11:08:32;;;;;;;10.07;6.57;;;;;;;10.17;86.85;99433.00;4469983;32;20136;-67
2023/04/09 11:11:00;;;;;;;11.02;6.40;;;;;;;10.25;84.38;99437.66;4469933;32;20438;-67
2023/04/09 11:13:30;;;;;;;13.13;6.55;;;;;;;10.19;82.14;99440.75;4470136;32;20140;-67
2023/04/09 11:15:59;;;;;;;9.55;5.80;;;;;;;10.19;81.68;99433.75;4454532;32;20455;-67
2023/04/09 11:18:29;;;;;;;9.60;6.05;;;;;;;10.12;79.94;99433.34;4454430;32;20107;-67
2023/04/09 11:20:58;;;;;;;11.85;7.20;;;;;;;10.43;81.20;99441.50;4453577;32;20115;-67
2023/04/09 11:23:25;;;;;;;10.07;5.82;;;;;;;10.65;81.06;99432.78;4454238;32;20124;-67
2023/04/09 11:25:53;;;;;;;9.70;5.90;;;;;;;10.67;78.60;99430.03;4454572;32;20160;-67
2023/04/09 11:28:21;;;;;;;9.68;6.37;;;;;;;10.99;79.43;99437.13;4454451;32;20096;-67
2023/04/09 11:30:52;;;;;;;11.85;6.18;;;;;;;11.20;77.20;99434.56;4454326;32;20093;-67
2023/04/09 11:33:19;;;;;;;10.27;6.78;;;;;;;11.27;79.20;99435.72;4454485;32;20104;-67